sensor_id;sensor_type;location;lat;lon;timestamp;P1;durP1;ratioP1;P2;durP2;ratioP2
9156;SDS011;4613;48.392;9.998;2023-07-24T00:00:55;4.10;;;2.67;;
9156;SDS011;4613;48.392;9.998;2023-07-24T00:03:44;3.60;;;2.27;;
9156;SDS011;4613;48.392;9.998;2023-07-24T00:06:34;3.90;;;2.40;;
9156;SDS011;4613;48.392;9.998;2023-07-24T00:09:23;4.17;;;2.50;;
9156;SDS011;4613;48.392;9.998;2023-07-24T00:12:13;3.23;;;2.40;;
9156;SDS011;4613;48.392;9.998;2023-07-24T00:15:02;3.27;;;2.50;;
9156;SDS011;4613;48.392;9.998;2023-07-24T00:17:51;2.97;;;2.30;;
9156;SDS011;4613;48.392;9.998;2023-07-24T00:20:41;3.10;;;2.20;;
9156;SDS011;4613;48.392;9.998;2023-07-24T00:23:30;4.00;;;2.43;;
9156;SDS011;4613;48.392;9.998;2023-07-24T00:26:19;3.40;;;2.53;;
9156;SDS011;4613;48.392;9.998;2023-07-24T00:29:08;4.93;;;3.07;;
9156;SDS011;4613;48.392;9.998;2023-07-24T00:31:58;3.13;;;2.37;;
9156;SDS011;4613;48.392;9.998;2023-07-24T00:34:47;2.63;;;2.40;;
9156;SDS011;4613;48.392;9.998;2023-07-24T00:37:36;2.43;;;2.13;;
9156;SDS011;4613;48.392;9.998;2023-07-24T00:40:25;3.03;;;2.40;;
9156;SDS011;4613;48.392;9.998;2023-07-24T00:43:15;3.17;;;2.70;;
9156;SDS011;4613;48.392;9.998;2023-07-24T00:46:05;2.53;;;2.10;;
9156;SDS011;4613;48.392;9.998;2023-07-24T00:48:54;3.37;;;2.70;;
9156;SDS011;4613;48.392;9.998;2023-07-24T00:51:44;4.80;;;3.07;;
9156;SDS011;4613;48.392;9.998;2023-07-24T00:54:34;2.50;;;2.30;;
9156;SDS011;4613;48.392;9.998;2023-07-24T00:57:23;3.50;;;2.50;;
9156;SDS011;4613;48.392;9.998;2023-07-24T01:00:12;4.53;;;2.33;;
9156;SDS011;4613;48.392;9.998;2023-07-24T01:03:02;4.47;;;2.53;;
9156;SDS011;4613;48.392;9.998;2023-07-24T01:05:53;3.57;;;2.20;;
9156;SDS011;4613;48.392;9.998;2023-07-24T01:08:43;3.40;;;2.50;;
9156;SDS011;4613;48.392;9.998;2023-07-24T01:11:36;3.23;;;2.27;;
9156;SDS011;4613;48.392;9.998;2023-07-24T01:14:36;4.00;;;2.50;;
9156;SDS011;4613;48.392;9.998;2023-07-24T01:17:30;4.33;;;2.33;;
9156;SDS011;4613;48.392;9.998;2023-07-24T01:20:21;3.13;;;2.60;;
9156;SDS011;4613;48.392;9.998;2023-07-24T01:26:27;3.20;;;2.53;;
9156;SDS011;4613;48.392;9.998;2023-07-24T01:29:17;3.83;;;2.53;;
9156;SDS011;4613;48.392;9.998;2023-07-24T01:32:06;3.33;;;2.30;;
9156;SDS011;4613;48.392;9.998;2023-07-24T01:34:55;3.30;;;2.67;;
9156;SDS011;4613;48.392;9.998;2023-07-24T01:37:45;4.07;;;2.47;;
9156;SDS011;4613;48.392;9.998;2023-07-24T01:40:35;4.03;;;2.37;;
9156;SDS011;4613;48.392;9.998;2023-07-24T01:43:25;3.30;;;2.63;;
9156;SDS011;4613;48.392;9.998;2023-07-24T01:46:18;2.40;;;2.20;;
9156;SDS011;4613;48.392;9.998;2023-07-24T01:49:07;4.10;;;2.57;;
9156;SDS011;4613;48.392;9.998;2023-07-24T01:51:57;5.40;;;2.77;;
9156;SDS011;4613;48.392;9.998;2023-07-24T01:54:46;3.87;;;2.73;;
9156;SDS011;4613;48.392;9.998;2023-07-24T01:57:35;3.77;;;2.53;;
9156;SDS011;4613;48.392;9.998;2023-07-24T02:00:24;2.90;;;2.53;;
9156;SDS011;4613;48.392;9.998;2023-07-24T02:03:20;3.67;;;2.60;;
9156;SDS011;4613;48.392;9.998;2023-07-24T02:06:09;6.40;;;3.10;;
9156;SDS011;4613;48.392;9.998;2023-07-24T02:08:59;3.70;;;3.07;;
9156;SDS011;4613;48.392;9.998;2023-07-24T02:11:48;6.27;;;2.87;;
9156;SDS011;4613;48.392;9.998;2023-07-24T02:14:38;8.57;;;3.97;;
9156;SDS011;4613;48.392;9.998;2023-07-24T02:17:27;6.27;;;3.50;;
9156;SDS011;4613;48.392;9.998;2023-07-24T02:20:17;5.17;;;3.23;;
9156;SDS011;4613;48.392;9.998;2023-07-24T02:23:07;6.90;;;3.97;;
9156;SDS011;4613;48.392;9.998;2023-07-24T02:25:57;5.93;;;3.50;;
9156;SDS011;4613;48.392;9.998;2023-07-24T02:28:46;5.03;;;3.03;;
9156;SDS011;4613;48.392;9.998;2023-07-24T02:31:36;5.60;;;3.47;;
9156;SDS011;4613;48.392;9.998;2023-07-24T02:34:26;4.23;;;3.10;;
9156;SDS011;4613;48.392;9.998;2023-07-24T02:37:17;6.10;;;3.47;;
9156;SDS011;4613;48.392;9.998;2023-07-24T02:40:07;3.93;;;3.23;;
9156;SDS011;4613;48.392;9.998;2023-07-24T02:42:57;4.93;;;3.47;;
9156;SDS011;4613;48.392;9.998;2023-07-24T02:45:46;5.63;;;3.50;;
9156;SDS011;4613;48.392;9.998;2023-07-24T02:48:36;3.70;;;3.03;;
9156;SDS011;4613;48.392;9.998;2023-07-24T02:51:25;5.93;;;3.83;;
9156;SDS011;4613;48.392;9.998;2023-07-24T02:54:16;6.03;;;3.50;;
9156;SDS011;4613;48.392;9.998;2023-07-24T02:57:05;4.70;;;3.20;;
9156;SDS011;4613;48.392;9.998;2023-07-24T02:59:55;5.73;;;3.40;;
9156;SDS011;4613;48.392;9.998;2023-07-24T03:02:45;5.47;;;3.30;;
9156;SDS011;4613;48.392;9.998;2023-07-24T03:05:34;4.00;;;3.40;;
9156;SDS011;4613;48.392;9.998;2023-07-24T03:08:23;5.43;;;3.60;;
9156;SDS011;4613;48.392;9.998;2023-07-24T03:11:12;5.03;;;3.53;;
9156;SDS011;4613;48.392;9.998;2023-07-24T03:14:02;5.90;;;3.60;;
9156;SDS011;4613;48.392;9.998;2023-07-24T03:16:51;5.97;;;3.90;;
9156;SDS011;4613;48.392;9.998;2023-07-24T03:19:41;6.90;;;4.00;;
9156;SDS011;4613;48.392;9.998;2023-07-24T03:22:30;5.70;;;4.10;;
9156;SDS011;4613;48.392;9.998;2023-07-24T03:25:19;5.73;;;3.60;;
9156;SDS011;4613;48.392;9.998;2023-07-24T03:28:08;6.40;;;4.10;;
9156;SDS011;4613;48.392;9.998;2023-07-24T03:30:58;7.57;;;4.03;;
9156;SDS011;4613;48.392;9.998;2023-07-24T03:33:47;6.03;;;4.13;;
9156;SDS011;4613;48.392;9.998;2023-07-24T03:36:37;7.20;;;4.40;;
9156;SDS011;4613;48.392;9.998;2023-07-24T03:39:30;5.33;;;4.10;;
9156;SDS011;4613;48.392;9.998;2023-07-24T03:42:26;4.93;;;3.60;;
9156;SDS011;4613;48.392;9.998;2023-07-24T03:45:16;6.67;;;4.77;;
9156;SDS011;4613;48.392;9.998;2023-07-24T03:48:06;6.77;;;4.70;;
9156;SDS011;4613;48.392;9.998;2023-07-24T03:50:59;8.47;;;4.80;;
9156;SDS011;4613;48.392;9.998;2023-07-24T03:53:48;6.27;;;4.40;;
9156;SDS011;4613;48.392;9.998;2023-07-24T03:56:38;7.63;;;5.20;;
9156;SDS011;4613;48.392;9.998;2023-07-24T03:59:27;6.40;;;4.00;;
9156;SDS011;4613;48.392;9.998;2023-07-24T04:02:16;7.93;;;4.13;;
9156;SDS011;4613;48.392;9.998;2023-07-24T04:05:06;6.17;;;4.20;;
9156;SDS011;4613;48.392;9.998;2023-07-24T04:07:55;7.40;;;4.63;;
9156;SDS011;4613;48.392;9.998;2023-07-24T04:10:45;6.83;;;4.30;;
9156;SDS011;4613;48.392;9.998;2023-07-24T04:13:34;5.80;;;4.27;;
9156;SDS011;4613;48.392;9.998;2023-07-24T04:16:24;6.87;;;4.60;;
9156;SDS011;4613;48.392;9.998;2023-07-24T04:19:13;8.73;;;4.67;;
9156;SDS011;4613;48.392;9.998;2023-07-24T04:22:02;5.90;;;4.43;;
9156;SDS011;4613;48.392;9.998;2023-07-24T04:24:52;6.77;;;4.13;;
9156;SDS011;4613;48.392;9.998;2023-07-24T04:27:41;9.90;;;4.80;;
9156;SDS011;4613;48.392;9.998;2023-07-24T04:30:30;5.67;;;3.80;;
9156;SDS011;4613;48.392;9.998;2023-07-24T04:33:19;7.17;;;4.07;;
9156;SDS011;4613;48.392;9.998;2023-07-24T04:36:08;6.50;;;3.70;;
9156;SDS011;4613;48.392;9.998;2023-07-24T04:38:57;5.07;;;3.83;;
9156;SDS011;4613;48.392;9.998;2023-07-24T04:41:46;5.30;;;3.23;;
9156;SDS011;4613;48.392;9.998;2023-07-24T04:44:36;5.13;;;3.47;;
9156;SDS011;4613;48.392;9.998;2023-07-24T04:47:25;4.23;;;3.13;;
9156;SDS011;4613;48.392;9.998;2023-07-24T04:50:14;5.30;;;3.40;;
9156;SDS011;4613;48.392;9.998;2023-07-24T04:53:03;6.20;;;3.67;;
9156;SDS011;4613;48.392;9.998;2023-07-24T04:55:53;9.40;;;5.93;;
9156;SDS011;4613;48.392;9.998;2023-07-24T04:58:42;6.30;;;4.00;;
9156;SDS011;4613;48.392;9.998;2023-07-24T05:01:32;4.57;;;3.60;;
9156;SDS011;4613;48.392;9.998;2023-07-24T05:04:21;5.20;;;3.33;;
9156;SDS011;4613;48.392;9.998;2023-07-24T05:07:11;5.53;;;3.47;;
9156;SDS011;4613;48.392;9.998;2023-07-24T05:10:00;5.27;;;3.40;;
9156;SDS011;4613;48.392;9.998;2023-07-24T05:12:49;7.47;;;3.80;;
9156;SDS011;4613;48.392;9.998;2023-07-24T05:15:38;5.20;;;3.67;;
9156;SDS011;4613;48.392;9.998;2023-07-24T05:18:27;4.80;;;3.73;;
9156;SDS011;4613;48.392;9.998;2023-07-24T05:21:17;6.80;;;3.53;;
9156;SDS011;4613;48.392;9.998;2023-07-24T05:24:06;4.90;;;3.33;;
9156;SDS011;4613;48.392;9.998;2023-07-24T05:26:55;5.43;;;3.73;;
9156;SDS011;4613;48.392;9.998;2023-07-24T05:29:44;4.33;;;3.30;;
9156;SDS011;4613;48.392;9.998;2023-07-24T05:32:33;5.93;;;4.00;;
9156;SDS011;4613;48.392;9.998;2023-07-24T05:35:23;4.63;;;3.13;;
9156;SDS011;4613;48.392;9.998;2023-07-24T05:38:12;5.23;;;3.50;;
9156;SDS011;4613;48.392;9.998;2023-07-24T05:41:03;5.10;;;3.63;;
9156;SDS011;4613;48.392;9.998;2023-07-24T05:43:53;6.30;;;3.30;;
9156;SDS011;4613;48.392;9.998;2023-07-24T05:46:42;4.73;;;3.37;;
9156;SDS011;4613;48.392;9.998;2023-07-24T05:49:31;5.63;;;3.47;;
9156;SDS011;4613;48.392;9.998;2023-07-24T05:52:21;5.57;;;3.50;;
9156;SDS011;4613;48.392;9.998;2023-07-24T05:55:10;5.77;;;3.37;;
9156;SDS011;4613;48.392;9.998;2023-07-24T05:57:59;5.60;;;3.90;;
9156;SDS011;4613;48.392;9.998;2023-07-24T06:00:49;5.57;;;3.30;;
9156;SDS011;4613;48.392;9.998;2023-07-24T06:03:39;4.60;;;3.30;;
9156;SDS011;4613;48.392;9.998;2023-07-24T06:06:28;6.30;;;3.80;;
9156;SDS011;4613;48.392;9.998;2023-07-24T06:09:17;6.43;;;3.63;;
9156;SDS011;4613;48.392;9.998;2023-07-24T06:12:07;6.07;;;3.77;;
9156;SDS011;4613;48.392;9.998;2023-07-24T06:14:57;6.77;;;3.90;;
9156;SDS011;4613;48.392;9.998;2023-07-24T06:17:46;5.77;;;3.80;;
9156;SDS011;4613;48.392;9.998;2023-07-24T06:20:36;4.23;;;3.37;;
9156;SDS011;4613;48.392;9.998;2023-07-24T06:23:25;6.30;;;3.97;;
9156;SDS011;4613;48.392;9.998;2023-07-24T06:26:14;5.60;;;3.73;;
9156;SDS011;4613;48.392;9.998;2023-07-24T06:29:04;6.50;;;3.70;;
9156;SDS011;4613;48.392;9.998;2023-07-24T06:31:53;6.33;;;3.53;;
9156;SDS011;4613;48.392;9.998;2023-07-24T06:34:42;6.40;;;4.00;;
9156;SDS011;4613;48.392;9.998;2023-07-24T06:37:31;5.30;;;3.57;;
9156;SDS011;4613;48.392;9.998;2023-07-24T06:40:20;7.97;;;3.67;;
9156;SDS011;4613;48.392;9.998;2023-07-24T06:43:09;6.23;;;3.70;;
9156;SDS011;4613;48.392;9.998;2023-07-24T06:45:59;6.10;;;4.00;;
9156;SDS011;4613;48.392;9.998;2023-07-24T06:48:48;5.27;;;3.63;;
9156;SDS011;4613;48.392;9.998;2023-07-24T06:51:38;5.97;;;3.87;;
9156;SDS011;4613;48.392;9.998;2023-07-24T06:54:27;7.37;;;4.00;;
9156;SDS011;4613;48.392;9.998;2023-07-24T06:57:16;5.70;;;3.90;;
9156;SDS011;4613;48.392;9.998;2023-07-24T07:00:07;6.60;;;3.53;;
9156;SDS011;4613;48.392;9.998;2023-07-24T07:03:00;6.50;;;3.80;;
9156;SDS011;4613;48.392;9.998;2023-07-24T07:05:49;5.83;;;4.03;;
9156;SDS011;4613;48.392;9.998;2023-07-24T07:08:39;4.73;;;3.40;;
9156;SDS011;4613;48.392;9.998;2023-07-24T07:11:28;4.90;;;3.50;;
9156;SDS011;4613;48.392;9.998;2023-07-24T07:14:17;3.90;;;2.70;;
9156;SDS011;4613;48.392;9.998;2023-07-24T07:17:06;8.60;;;3.23;;
9156;SDS011;4613;48.392;9.998;2023-07-24T07:19:55;2.93;;;2.47;;
9156;SDS011;4613;48.392;9.998;2023-07-24T07:22:46;4.27;;;3.10;;
9156;SDS011;4613;48.392;9.998;2023-07-24T07:25:35;3.60;;;2.40;;
9156;SDS011;4613;48.392;9.998;2023-07-24T07:28:26;3.87;;;2.93;;
9156;SDS011;4613;48.392;9.998;2023-07-24T07:31:15;3.73;;;2.60;;
9156;SDS011;4613;48.392;9.998;2023-07-24T07:34:05;3.43;;;2.57;;
9156;SDS011;4613;48.392;9.998;2023-07-24T07:36:54;5.40;;;2.97;;
9156;SDS011;4613;48.392;9.998;2023-07-24T07:39:43;3.27;;;2.60;;
9156;SDS011;4613;48.392;9.998;2023-07-24T07:42:33;3.73;;;2.70;;
9156;SDS011;4613;48.392;9.998;2023-07-24T07:45:22;4.23;;;2.73;;
9156;SDS011;4613;48.392;9.998;2023-07-24T07:48:12;4.03;;;2.63;;
9156;SDS011;4613;48.392;9.998;2023-07-24T07:51:02;4.67;;;2.67;;
9156;SDS011;4613;48.392;9.998;2023-07-24T07:53:51;2.77;;;2.30;;
9156;SDS011;4613;48.392;9.998;2023-07-24T07:56:41;3.37;;;2.50;;
9156;SDS011;4613;48.392;9.998;2023-07-24T07:59:31;4.67;;;2.70;;
9156;SDS011;4613;48.392;9.998;2023-07-24T08:02:20;4.27;;;3.27;;
9156;SDS011;4613;48.392;9.998;2023-07-24T08:05:10;3.13;;;2.53;;
9156;SDS011;4613;48.392;9.998;2023-07-24T08:07:59;3.90;;;3.03;;
9156;SDS011;4613;48.392;9.998;2023-07-24T08:10:49;4.23;;;2.50;;
9156;SDS011;4613;48.392;9.998;2023-07-24T08:13:38;3.60;;;2.40;;
9156;SDS011;4613;48.392;9.998;2023-07-24T08:16:27;2.90;;;2.47;;
9156;SDS011;4613;48.392;9.998;2023-07-24T08:19:16;4.67;;;2.70;;
9156;SDS011;4613;48.392;9.998;2023-07-24T08:22:06;3.33;;;2.60;;
9156;SDS011;4613;48.392;9.998;2023-07-24T08:24:56;3.30;;;2.50;;
9156;SDS011;4613;48.392;9.998;2023-07-24T08:27:45;4.30;;;2.27;;
9156;SDS011;4613;48.392;9.998;2023-07-24T08:30:34;3.70;;;2.70;;
9156;SDS011;4613;48.392;9.998;2023-07-24T08:33:23;2.90;;;2.60;;
9156;SDS011;4613;48.392;9.998;2023-07-24T08:36:13;3.83;;;2.87;;
9156;SDS011;4613;48.392;9.998;2023-07-24T08:39:02;5.00;;;2.97;;
9156;SDS011;4613;48.392;9.998;2023-07-24T08:41:52;3.23;;;2.50;;
9156;SDS011;4613;48.392;9.998;2023-07-24T08:44:41;2.87;;;2.20;;
9156;SDS011;4613;48.392;9.998;2023-07-24T08:47:32;3.27;;;2.40;;
9156;SDS011;4613;48.392;9.998;2023-07-24T08:50:24;2.63;;;2.40;;
9156;SDS011;4613;48.392;9.998;2023-07-24T08:53:15;2.53;;;2.17;;
9156;SDS011;4613;48.392;9.998;2023-07-24T08:56:07;2.83;;;2.10;;
9156;SDS011;4613;48.392;9.998;2023-07-24T08:58:58;3.10;;;2.33;;
9156;SDS011;4613;48.392;9.998;2023-07-24T09:01:47;3.27;;;2.10;;
9156;SDS011;4613;48.392;9.998;2023-07-24T09:04:36;2.43;;;2.20;;
9156;SDS011;4613;48.392;9.998;2023-07-24T09:07:26;3.50;;;2.40;;
9156;SDS011;4613;48.392;9.998;2023-07-24T09:10:15;3.30;;;2.30;;
9156;SDS011;4613;48.392;9.998;2023-07-24T09:13:04;2.50;;;2.30;;
9156;SDS011;4613;48.392;9.998;2023-07-24T09:15:54;3.17;;;2.33;;
9156;SDS011;4613;48.392;9.998;2023-07-24T09:18:44;3.83;;;2.50;;
9156;SDS011;4613;48.392;9.998;2023-07-24T09:21:33;2.20;;;2.00;;
9156;SDS011;4613;48.392;9.998;2023-07-24T09:24:23;2.97;;;2.20;;
9156;SDS011;4613;48.392;9.998;2023-07-24T09:27:14;2.70;;;2.10;;
9156;SDS011;4613;48.392;9.998;2023-07-24T09:30:11;3.10;;;2.20;;
9156;SDS011;4613;48.392;9.998;2023-07-24T09:33:02;2.93;;;1.90;;
9156;SDS011;4613;48.392;9.998;2023-07-24T09:35:58;2.83;;;2.27;;
9156;SDS011;4613;48.392;9.998;2023-07-24T09:38:48;2.53;;;1.93;;
9156;SDS011;4613;48.392;9.998;2023-07-24T09:41:38;2.93;;;2.30;;
9156;SDS011;4613;48.392;9.998;2023-07-24T09:44:28;2.40;;;2.00;;
9156;SDS011;4613;48.392;9.998;2023-07-24T09:47:20;2.97;;;2.23;;
9156;SDS011;4613;48.392;9.998;2023-07-24T09:50:09;2.27;;;1.90;;
9156;SDS011;4613;48.392;9.998;2023-07-24T09:52:59;2.00;;;1.80;;
9156;SDS011;4613;48.392;9.998;2023-07-24T09:55:51;2.47;;;2.10;;
9156;SDS011;4613;48.392;9.998;2023-07-24T09:58:45;2.37;;;1.87;;
9156;SDS011;4613;48.392;9.998;2023-07-24T10:01:38;4.67;;;2.70;;
9156;SDS011;4613;48.392;9.998;2023-07-24T10:04:28;3.83;;;2.40;;
9156;SDS011;4613;48.392;9.998;2023-07-24T10:07:17;2.60;;;2.40;;
9156;SDS011;4613;48.392;9.998;2023-07-24T10:10:10;2.53;;;2.13;;
9156;SDS011;4613;48.392;9.998;2023-07-24T10:13:00;5.73;;;1.90;;
9156;SDS011;4613;48.392;9.998;2023-07-24T10:15:50;2.73;;;1.93;;
9156;SDS011;4613;48.392;9.998;2023-07-24T10:18:43;3.50;;;2.03;;
9156;SDS011;4613;48.392;9.998;2023-07-24T10:21:33;2.60;;;1.90;;
9156;SDS011;4613;48.392;9.998;2023-07-24T10:24:28;3.53;;;2.10;;
9156;SDS011;4613;48.392;9.998;2023-07-24T10:27:22;2.10;;;1.90;;
9156;SDS011;4613;48.392;9.998;2023-07-24T10:30:12;2.47;;;2.10;;
9156;SDS011;4613;48.392;9.998;2023-07-24T10:33:09;2.50;;;2.07;;
9156;SDS011;4613;48.392;9.998;2023-07-24T10:36:07;2.47;;;2.20;;
9156;SDS011;4613;48.392;9.998;2023-07-24T10:38:59;2.50;;;2.10;;
9156;SDS011;4613;48.392;9.998;2023-07-24T10:41:50;3.40;;;2.17;;
9156;SDS011;4613;48.392;9.998;2023-07-24T10:44:39;2.97;;;2.03;;
9156;SDS011;4613;48.392;9.998;2023-07-24T10:47:28;3.57;;;1.73;;
9156;SDS011;4613;48.392;9.998;2023-07-24T10:50:17;2.53;;;1.93;;
9156;SDS011;4613;48.392;9.998;2023-07-24T10:53:08;2.60;;;2.13;;
9156;SDS011;4613;48.392;9.998;2023-07-24T10:55:59;2.40;;;2.20;;
9156;SDS011;4613;48.392;9.998;2023-07-24T10:58:49;2.40;;;2.00;;
9156;SDS011;4613;48.392;9.998;2023-07-24T11:01:38;2.40;;;1.93;;
9156;SDS011;4613;48.392;9.998;2023-07-24T11:04:29;1.97;;;1.87;;
9156;SDS011;4613;48.392;9.998;2023-07-24T11:07:18;3.30;;;2.20;;
9156;SDS011;4613;48.392;9.998;2023-07-24T11:10:18;2.50;;;2.27;;
9156;SDS011;4613;48.392;9.998;2023-07-24T11:13:11;3.83;;;2.33;;
9156;SDS011;4613;48.392;9.998;2023-07-24T11:16:04;2.77;;;2.17;;
9156;SDS011;4613;48.392;9.998;2023-07-24T11:18:55;2.50;;;2.10;;
9156;SDS011;4613;48.392;9.998;2023-07-24T11:21:44;2.43;;;2.07;;
9156;SDS011;4613;48.392;9.998;2023-07-24T11:24:41;3.90;;;2.33;;
9156;SDS011;4613;48.392;9.998;2023-07-24T11:27:31;2.27;;;2.07;;
9156;SDS011;4613;48.392;9.998;2023-07-24T11:30:21;3.40;;;2.03;;
9156;SDS011;4613;48.392;9.998;2023-07-24T11:33:11;3.03;;;2.20;;
9156;SDS011;4613;48.392;9.998;2023-07-24T11:36:03;3.60;;;2.23;;
9156;SDS011;4613;48.392;9.998;2023-07-24T11:38:53;3.73;;;2.30;;
9156;SDS011;4613;48.392;9.998;2023-07-24T11:41:42;2.60;;;2.20;;
9156;SDS011;4613;48.392;9.998;2023-07-24T11:44:31;2.37;;;2.00;;
9156;SDS011;4613;48.392;9.998;2023-07-24T11:47:21;2.03;;;1.67;;
9156;SDS011;4613;48.392;9.998;2023-07-24T11:50:10;2.83;;;2.03;;
9156;SDS011;4613;48.392;9.998;2023-07-24T11:53:00;4.53;;;2.13;;
9156;SDS011;4613;48.392;9.998;2023-07-24T11:55:49;2.37;;;1.80;;
9156;SDS011;4613;48.392;9.998;2023-07-24T11:58:40;2.77;;;2.30;;
9156;SDS011;4613;48.392;9.998;2023-07-24T12:01:29;2.73;;;2.23;;
9156;SDS011;4613;48.392;9.998;2023-07-24T12:04:18;2.20;;;2.00;;
9156;SDS011;4613;48.392;9.998;2023-07-24T12:07:09;2.87;;;2.10;;
9156;SDS011;4613;48.392;9.998;2023-07-24T12:09:59;2.30;;;1.90;;
9156;SDS011;4613;48.392;9.998;2023-07-24T12:12:54;3.37;;;2.30;;
9156;SDS011;4613;48.392;9.998;2023-07-24T12:15:46;2.57;;;1.93;;
9156;SDS011;4613;48.392;9.998;2023-07-24T12:18:35;4.03;;;2.23;;
9156;SDS011;4613;48.392;9.998;2023-07-24T12:21:24;4.10;;;2.50;;
9156;SDS011;4613;48.392;9.998;2023-07-24T12:24:13;2.20;;;2.00;;
9156;SDS011;4613;48.392;9.998;2023-07-24T12:27:02;2.17;;;1.97;;
9156;SDS011;4613;48.392;9.998;2023-07-24T12:29:52;3.03;;;2.00;;
9156;SDS011;4613;48.392;9.998;2023-07-24T12:32:41;2.17;;;1.97;;
9156;SDS011;4613;48.392;9.998;2023-07-24T12:35:30;2.43;;;2.23;;
9156;SDS011;4613;48.392;9.998;2023-07-24T12:38:20;3.37;;;2.23;;
9156;SDS011;4613;48.392;9.998;2023-07-24T12:41:09;2.57;;;2.20;;
9156;SDS011;4613;48.392;9.998;2023-07-24T12:43:59;3.77;;;2.10;;
9156;SDS011;4613;48.392;9.998;2023-07-24T12:46:48;2.10;;;1.90;;
9156;SDS011;4613;48.392;9.998;2023-07-24T12:49:38;3.57;;;2.40;;
9156;SDS011;4613;48.392;9.998;2023-07-24T12:52:28;2.43;;;2.00;;
9156;SDS011;4613;48.392;9.998;2023-07-24T12:55:18;3.77;;;2.50;;
9156;SDS011;4613;48.392;9.998;2023-07-24T12:58:07;3.37;;;2.13;;
9156;SDS011;4613;48.392;9.998;2023-07-24T13:00:56;2.87;;;2.30;;
9156;SDS011;4613;48.392;9.998;2023-07-24T13:03:46;3.17;;;2.40;;
9156;SDS011;4613;48.392;9.998;2023-07-24T13:06:35;2.63;;;2.00;;
9156;SDS011;4613;48.392;9.998;2023-07-24T13:09:25;2.60;;;2.10;;
9156;SDS011;4613;48.392;9.998;2023-07-24T13:12:16;3.07;;;2.40;;
9156;SDS011;4613;48.392;9.998;2023-07-24T13:15:05;4.83;;;2.30;;
9156;SDS011;4613;48.392;9.998;2023-07-24T13:17:55;2.30;;;2.10;;
9156;SDS011;4613;48.392;9.998;2023-07-24T13:20:44;4.40;;;2.30;;
9156;SDS011;4613;48.392;9.998;2023-07-24T13:23:34;3.03;;;2.00;;
9156;SDS011;4613;48.392;9.998;2023-07-24T13:26:23;3.63;;;2.40;;
9156;SDS011;4613;48.392;9.998;2023-07-24T13:29:12;2.27;;;1.90;;
9156;SDS011;4613;48.392;9.998;2023-07-24T13:32:01;2.80;;;2.10;;
9156;SDS011;4613;48.392;9.998;2023-07-24T13:34:50;2.43;;;1.90;;
9156;SDS011;4613;48.392;9.998;2023-07-24T13:37:40;2.27;;;1.83;;
9156;SDS011;4613;48.392;9.998;2023-07-24T13:40:29;1.73;;;1.63;;
9156;SDS011;4613;48.392;9.998;2023-07-24T13:43:18;1.60;;;1.50;;
9156;SDS011;4613;48.392;9.998;2023-07-24T13:46:07;2.83;;;1.83;;
9156;SDS011;4613;48.392;9.998;2023-07-24T13:48:57;1.67;;;1.50;;
9156;SDS011;4613;48.392;9.998;2023-07-24T13:51:46;2.83;;;1.70;;
9156;SDS011;4613;48.392;9.998;2023-07-24T13:54:35;2.77;;;1.83;;
9156;SDS011;4613;48.392;9.998;2023-07-24T13:57:25;2.30;;;1.90;;
9156;SDS011;4613;48.392;9.998;2023-07-24T14:00:14;1.50;;;1.40;;
9156;SDS011;4613;48.392;9.998;2023-07-24T14:03:04;1.40;;;1.30;;
9156;SDS011;4613;48.392;9.998;2023-07-24T14:05:53;1.60;;;1.50;;
9156;SDS011;4613;48.392;9.998;2023-07-24T14:08:42;2.43;;;1.50;;
9156;SDS011;4613;48.392;9.998;2023-07-24T14:11:31;1.83;;;1.40;;
9156;SDS011;4613;48.392;9.998;2023-07-24T14:14:21;2.23;;;1.60;;
9156;SDS011;4613;48.392;9.998;2023-07-24T14:17:12;1.40;;;1.30;;
9156;SDS011;4613;48.392;9.998;2023-07-24T14:20:03;2.83;;;1.60;;
9156;SDS011;4613;48.392;9.998;2023-07-24T14:22:53;1.60;;;1.50;;
9156;SDS011;4613;48.392;9.998;2023-07-24T14:25:42;2.23;;;1.60;;
9156;SDS011;4613;48.392;9.998;2023-07-24T14:28:32;1.50;;;1.40;;
9156;SDS011;4613;48.392;9.998;2023-07-24T14:31:21;1.40;;;1.30;;
9156;SDS011;4613;48.392;9.998;2023-07-24T14:34:11;1.43;;;1.27;;
9156;SDS011;4613;48.392;9.998;2023-07-24T14:37:01;1.37;;;1.20;;
9156;SDS011;4613;48.392;9.998;2023-07-24T14:39:50;1.40;;;1.30;;
9156;SDS011;4613;48.392;9.998;2023-07-24T14:42:39;1.77;;;1.00;;
9156;SDS011;4613;48.392;9.998;2023-07-24T14:45:30;5.37;;;1.60;;
9156;SDS011;4613;48.392;9.998;2023-07-24T14:48:19;1.23;;;1.13;;
9156;SDS011;4613;48.392;9.998;2023-07-24T14:51:08;1.67;;;1.50;;
9156;SDS011;4613;48.392;9.998;2023-07-24T14:53:57;1.37;;;1.20;;
9156;SDS011;4613;48.392;9.998;2023-07-24T14:56:46;1.47;;;1.37;;
9156;SDS011;4613;48.392;9.998;2023-07-24T14:59:36;1.67;;;1.30;;
9156;SDS011;4613;48.392;9.998;2023-07-24T15:02:26;1.60;;;1.40;;
9156;SDS011;4613;48.392;9.998;2023-07-24T15:05:18;1.53;;;1.40;;
9156;SDS011;4613;48.392;9.998;2023-07-24T15:08:07;1.70;;;1.33;;
9156;SDS011;4613;48.392;9.998;2023-07-24T15:10:56;1.63;;;1.40;;
9156;SDS011;4613;48.392;9.998;2023-07-24T15:13:45;1.80;;;1.30;;
9156;SDS011;4613;48.392;9.998;2023-07-24T15:16:35;1.37;;;1.20;;
9156;SDS011;4613;48.392;9.998;2023-07-24T15:19:24;2.10;;;1.30;;
9156;SDS011;4613;48.392;9.998;2023-07-24T15:22:13;1.50;;;1.30;;
9156;SDS011;4613;48.392;9.998;2023-07-24T15:25:02;1.40;;;1.30;;
9156;SDS011;4613;48.392;9.998;2023-07-24T15:27:53;1.43;;;1.30;;
9156;SDS011;4613;48.392;9.998;2023-07-24T15:30:42;1.50;;;1.40;;
9156;SDS011;4613;48.392;9.998;2023-07-24T15:33:32;2.50;;;1.73;;
9156;SDS011;4613;48.392;9.998;2023-07-24T15:36:21;1.87;;;1.63;;
9156;SDS011;4613;48.392;9.998;2023-07-24T15:39:10;1.83;;;1.67;;
9156;SDS011;4613;48.392;9.998;2023-07-24T15:41:59;1.60;;;1.50;;
9156;SDS011;4613;48.392;9.998;2023-07-24T15:44:48;1.97;;;1.60;;
9156;SDS011;4613;48.392;9.998;2023-07-24T15:47:38;1.73;;;1.50;;
9156;SDS011;4613;48.392;9.998;2023-07-24T15:50:27;1.40;;;1.30;;
9156;SDS011;4613;48.392;9.998;2023-07-24T15:53:17;2.27;;;1.80;;
9156;SDS011;4613;48.392;9.998;2023-07-24T15:56:06;2.20;;;1.97;;
9156;SDS011;4613;48.392;9.998;2023-07-24T15:58:55;3.90;;;2.17;;
9156;SDS011;4613;48.392;9.998;2023-07-24T16:01:44;2.90;;;2.17;;
9156;SDS011;4613;48.392;9.998;2023-07-24T16:04:33;2.00;;;1.80;;
9156;SDS011;4613;48.392;9.998;2023-07-24T16:07:24;1.67;;;1.57;;
9156;SDS011;4613;48.392;9.998;2023-07-24T16:10:14;1.40;;;1.30;;
9156;SDS011;4613;48.392;9.998;2023-07-24T16:13:07;1.53;;;1.43;;
9156;SDS011;4613;48.392;9.998;2023-07-24T16:15:59;2.53;;;1.63;;
9156;SDS011;4613;48.392;9.998;2023-07-24T16:22:04;1.67;;;1.50;;
9156;SDS011;4613;48.392;9.998;2023-07-24T16:24:53;2.07;;;1.70;;
9156;SDS011;4613;48.392;9.998;2023-07-24T16:27:42;2.37;;;1.73;;
9156;SDS011;4613;48.392;9.998;2023-07-24T16:30:31;1.80;;;1.50;;
9156;SDS011;4613;48.392;9.998;2023-07-24T16:33:21;2.13;;;1.63;;
9156;SDS011;4613;48.392;9.998;2023-07-24T16:36:11;2.30;;;1.60;;
9156;SDS011;4613;48.392;9.998;2023-07-24T16:39:01;1.53;;;1.37;;
9156;SDS011;4613;48.392;9.998;2023-07-24T16:41:51;2.20;;;1.50;;
9156;SDS011;4613;48.392;9.998;2023-07-24T16:44:40;1.60;;;1.40;;
9156;SDS011;4613;48.392;9.998;2023-07-24T16:47:29;1.60;;;1.50;;
9156;SDS011;4613;48.392;9.998;2023-07-24T16:50:20;1.77;;;1.67;;
9156;SDS011;4613;48.392;9.998;2023-07-24T16:53:09;1.83;;;1.60;;
9156;SDS011;4613;48.392;9.998;2023-07-24T16:55:59;1.70;;;1.60;;
9156;SDS011;4613;48.392;9.998;2023-07-24T16:58:49;1.90;;;1.70;;
9156;SDS011;4613;48.392;9.998;2023-07-24T17:01:38;1.93;;;1.73;;
9156;SDS011;4613;48.392;9.998;2023-07-24T17:04:28;3.23;;;1.63;;
9156;SDS011;4613;48.392;9.998;2023-07-24T17:07:17;1.60;;;1.50;;
9156;SDS011;4613;48.392;9.998;2023-07-24T17:10:07;1.73;;;1.63;;
9156;SDS011;4613;48.392;9.998;2023-07-24T17:12:58;1.30;;;1.20;;
9156;SDS011;4613;48.392;9.998;2023-07-24T17:15:47;1.37;;;1.27;;
9156;SDS011;4613;48.392;9.998;2023-07-24T17:18:37;1.77;;;1.67;;
9156;SDS011;4613;48.392;9.998;2023-07-24T17:21:26;1.50;;;1.40;;
9156;SDS011;4613;48.392;9.998;2023-07-24T17:24:16;1.60;;;1.50;;
9156;SDS011;4613;48.392;9.998;2023-07-24T17:27:05;1.57;;;1.37;;
9156;SDS011;4613;48.392;9.998;2023-07-24T17:29:54;1.87;;;1.53;;
9156;SDS011;4613;48.392;9.998;2023-07-24T17:32:43;1.77;;;1.67;;
9156;SDS011;4613;48.392;9.998;2023-07-24T17:35:35;2.20;;;1.63;;
9156;SDS011;4613;48.392;9.998;2023-07-24T17:38:24;1.60;;;1.50;;
9156;SDS011;4613;48.392;9.998;2023-07-24T17:41:13;2.73;;;1.83;;